Vingaren — OZ2131 — position and weather

sailwx.info

Track history (hours):
 
Tides and Currents Weather Stations Pressure Air Temp Water Temp Dewpoint Dewpoint Depression Visibility Wind Speed Wind Dir Waves Ship Positions

Vingaren

Last reported at 2014-Sep-19 12:33 UTC. Time now 2014-Sep-21 06:10 UTC.
Position N 59°33' E 022°51'.

Length 89 m; draft 6.4 m.

Type: Cargo ship. MMSI: 231844000.

Date/timePositionNaut miles runAvg speedWind from/ knotsBaromVisibWave heightAir tempDewpointWater temp
2014-Sep-19 12:33N 59°33' E 022°51'19 9.6
2014-Sep-19 10:33N 59°39' E 023°27'10 9.6
2014-Sep-19 09:33N 59°41' E 023°45'10 9.3
2014-Sep-19 08:26N 59°44' E 024°05'9 9.5
2014-Sep-19 07:31N 59°46' E 024°22'9 9.4
2014-Sep-19 06:33N 59°48' E 024°39'9 9.4
2014-Sep-19 05:33N 59°50' E 024°58'22 9.2
2014-Sep-19 03:08N 59°48' E 025°42'19 9.4
2014-Sep-19 01:07N 59°44' E 026°19'6 8.9
2014-Sep-19 00:25N 59°40' E 026°27'8 1.1
2014-Sep-18 16:32N 59°32' E 026°33'0 0.0
2014-Sep-18 15:32N 59°32' E 026°33'1 0.1
2014-Sep-18 04:19N 59°33' E 026°32'2 0.4
2014-Sep-18 00:18N 59°34' E 026°31'0 0.0
2014-Sep-17 22:27N 59°34' E 026°31'4 1.3
2014-Sep-17 19:33N 59°38' E 026°29'30 9.8
2014-Sep-17 16:33N 59°49' E 025°35'1010.2
2014-Sep-17 15:33N 59°48' E 025°15'1010.2
2014-Sep-17 14:33N 59°46' E 024°55'1010.3
2014-Sep-17 13:33N 59°44' E 024°35'4510.4
2014-Sep-17 09:14N 59°31' E 023°10'810.6
2014-Sep-17 08:30N 59°28' E 022°55'1110.5
2014-Sep-17 07:24N 59°24' E 022°34'17110.2
2014-Sep-16 14:33N 58°37' E 017°14'9 9.0
2014-Sep-16 13:33N 58°36' E 016°57'9 9.0
2014-Sep-16 12:33N 58°38' E 016°40'8 8.5
2014-Sep-16 11:33N 58°39' E 016°24'6 6.3
2014-Sep-16 10:33N 58°36' E 016°13'0 0.3
2014-Sep-16 09:26N 58°36' E 016°12'0 0.0
2014-Sep-16 08:23N 58°36' E 016°12'0 0.0
2014-Sep-16 07:32N 58°36' E 016°12'0 0.0
2014-Sep-16 06:26N 58°36' E 016°12'0 0.0
2014-Sep-16 05:32N 58°36' E 016°12'0 0.0
2014-Sep-16 04:32N 58°36' E 016°12'0 0.0
2014-Sep-16 03:32N 58°36' E 016°12'0 0.0
2014-Sep-16 02:32N 58°36' E 016°12'0 0.0
2014-Sep-16 01:32N 58°36' E 016°12'0 0.0
2014-Sep-16 00:20N 58°36' E 016°12'0 0.0
2014-Sep-15 23:26N 58°36' E 016°12'0 0.0
2014-Sep-15 22:32N 58°36' E 016°12'0 0.0
2014-Sep-15 21:32N 58°36' E 016°12'0 0.0
2014-Sep-15 20:32N 58°36' E 016°12'0 0.0
2014-Sep-15 19:26N 58°36' E 016°12'0 0.0
2014-Sep-15 18:08N 58°36' E 016°12'0 0.1
2014-Sep-15 17:32N 58°36' E 016°12'0 0.0
2014-Sep-15 16:32N 58°36' E 016°12'0 0.0
2014-Sep-15 15:26N 58°36' E 016°12'0 0.0
2014-Sep-15 14:32N 58°36' E 016°12'0 0.0
2014-Sep-15 13:26N 58°36' E 016°12'0 0.0
2014-Sep-15 12:32N 58°36' E 016°12'0 0.0
2014-Sep-15 11:32N 58°36' E 016°12'0 0.0
2014-Sep-15 10:29N 58°36' E 016°12'0 0.0
2014-Sep-15 09:32N 58°36' E 016°12'0 0.0
2014-Sep-15 08:32N 58°36' E 016°12'0 0.0
2014-Sep-15 07:32N 58°36' E 016°12'0 0.0
2014-Sep-15 06:29N 58°36' E 016°12'0 0.0
2014-Sep-15 05:32N 58°36' E 016°12'0 0.0
2014-Sep-15 04:32N 58°36' E 016°12'0 0.0
2014-Sep-15 03:31N 58°36' E 016°12'0 0.0
2014-Sep-15 02:31N 58°36' E 016°12'0 0.0
2014-Sep-15 01:25N 58°36' E 016°12'0 0.0
2014-Sep-15 00:31N 58°36' E 016°12'0 0.0
2014-Sep-14 23:31N 58°36' E 016°12'0 0.0
2014-Sep-14 22:28N 58°36' E 016°12'0 0.0
2014-Sep-14 21:25N 58°36' E 016°12'0 0.0
2014-Sep-14 20:31N 58°36' E 016°12'0 0.0
2014-Sep-14 19:07N 58°36' E 016°12'0 0.0
2014-Sep-14 18:25N 58°36' E 016°12'0 0.0
2014-Sep-14 17:28N 58°36' E 016°12'0 0.0
2014-Sep-14 16:31N 58°36' E 016°12'0 0.0
2014-Sep-14 15:31N 58°36' E 016°12'0 0.0
2014-Sep-14 14:28N 58°36' E 016°12'0 0.0
2014-Sep-14 13:31N 58°36' E 016°12'0 0.0
2014-Sep-14 12:25N 58°36' E 016°12'0 0.0
2014-Sep-14 11:31N 58°36' E 016°12'0 0.0
2014-Sep-14 10:25N 58°36' E 016°12'0 0.0
2014-Sep-14 09:31N 58°36' E 016°12'0 0.0
2014-Sep-14 08:25N 58°36' E 016°12'0 0.0
2014-Sep-14 07:25N 58°36' E 016°12'0 0.0
2014-Sep-14 06:13N 58°36' E 016°12'0 0.0
2014-Sep-14 05:19N 58°36' E 016°12'0 0.0
2014-Sep-14 04:31N 58°36' E 016°12'0 0.0
2014-Sep-14 03:31N 58°36' E 016°12'0 0.0
2014-Sep-14 02:25N 58°36' E 016°12'0 0.0
2014-Sep-14 01:31N 58°36' E 016°12'0 0.0
2014-Sep-13 21:31N 58°36' E 016°12'0 0.0
2014-Sep-13 20:25N 58°36' E 016°12'0 0.0
2014-Sep-13 19:31N 58°36' E 016°12'0 0.0
2014-Sep-13 18:30N 58°36' E 016°12'0 0.0
2014-Sep-13 17:21N 58°36' E 016°12'0 0.0
2014-Sep-13 16:06N 58°36' E 016°12'0 0.0
2014-Sep-13 15:30N 58°36' E 016°12'0 0.0
2014-Sep-13 14:30N 58°36' E 016°12'0 0.0
2014-Sep-13 13:27N 58°36' E 016°12'0 0.0
2014-Sep-13 12:30N 58°36' E 016°12'0 0.0
2014-Sep-13 11:24N 58°36' E 016°12'0 0.0
2014-Sep-13 10:06N 58°36' E 016°12'0 0.0
2014-Sep-13 09:30N 58°36' E 016°12'0 0.0
2014-Sep-13 08:30N 58°36' E 016°12'0 0.0
2014-Sep-13 07:33N 58°36' E 016°12'3 3.2
2014-Sep-13 06:33N 58°38' E 016°17'8 8.0
2014-Sep-13 05:33N 58°39' E 016°32'8 8.4
2014-Sep-13 04:34N 58°37' E 016°48'8 7.8
2014-Sep-13 03:34N 58°37' E 017°03'8 7.6
2014-Sep-13 02:33N 58°37' E 017°18'180 6.6
2014-Sep-11 23:28N 59°32' E 022°51'8 7.9
2014-Sep-11 22:27N 59°35' E 023°05'7 8.1
2014-Sep-11 21:32N 59°37' E 023°19'7 7.6
2014-Sep-11 20:33N 59°39' E 023°33'8 7.6
2014-Sep-11 19:33N 59°42' E 023°48'8 7.7
2014-Sep-11 18:33N 59°44' E 024°02'9 8.0
2014-Sep-11 17:24N 59°46' E 024°20'7 7.7
2014-Sep-11 16:32N 59°48' E 024°33'10 7.8
2014-Sep-11 15:14N 59°50' E 024°53'23 7.9
2014-Sep-11 12:19N 59°54' E 025°38'21 7.8
2014-Sep-11 09:33N 59°59' E 026°19'8 7.8
2014-Sep-11 08:33N 60°01' E 026°35'8 7.8
2014-Sep-11 07:33N 60°00' E 026°50'9 7.4
2014-Sep-11 06:20N 60°01' E 027°08'3 0.1
2014-Sep-09 18:05N 59°58' E 027°05'5 7.2
2014-Sep-09 17:21N 59°59' E 026°54'6 7.4
2014-Sep-09 16:33N 59°59' E 026°43'7 7.2
2014-Sep-09 15:34N 59°58' E 026°29'9 7.3
2014-Sep-09 14:17N 59°55' E 026°11'8 8.7
2014-Sep-09 13:22N 59°53' E 025°55'  
Track history (hours):
 
Tides and Currents Weather Stations Pressure Air Temp Water Temp Dewpoint Dewpoint Depression Visibility Wind Speed Wind Dir Waves Ship Positions

Vingaren

Last reported at 2014-Sep-19 12:33 UTC. Time now 2014-Sep-21 06:10 UTC.
Position N 59°33' E 022°51'.

Length 89 m; draft 6.4 m.

Type: Cargo ship. MMSI: 231844000.

Date/timePositionNaut miles runAvg speedWind from/ knotsBaromVisibWave heightAir tempDewpointWater temp
2014-Sep-19 12:33N 59°33' E 022°51'19 9.6
2014-Sep-19 10:33N 59°39' E 023°27'10 9.6
2014-Sep-19 09:33N 59°41' E 023°45'10 9.3
2014-Sep-19 08:26N 59°44' E 024°05'9 9.5
2014-Sep-19 07:31N 59°46' E 024°22'9 9.4
2014-Sep-19 06:33N 59°48' E 024°39'9 9.4
2014-Sep-19 05:33N 59°50' E 024°58'22 9.2
2014-Sep-19 03:08N 59°48' E 025°42'19 9.4
2014-Sep-19 01:07N 59°44' E 026°19'6 8.9
2014-Sep-19 00:25N 59°40' E 026°27'8 1.1
2014-Sep-18 16:32N 59°32' E 026°33'0 0.0
2014-Sep-18 15:32N 59°32' E 026°33'1 0.1
2014-Sep-18 04:19N 59°33' E 026°32'2 0.4
2014-Sep-18 00:18N 59°34' E 026°31'0 0.0
2014-Sep-17 22:27N 59°34' E 026°31'4 1.3
2014-Sep-17 19:33N 59°38' E 026°29'30 9.8
2014-Sep-17 16:33N 59°49' E 025°35'1010.2
2014-Sep-17 15:33N 59°48' E 025°15'1010.2
2014-Sep-17 14:33N 59°46' E 024°55'1010.3
2014-Sep-17 13:33N 59°44' E 024°35'4510.4
2014-Sep-17 09:14N 59°31' E 023°10'810.6
2014-Sep-17 08:30N 59°28' E 022°55'1110.5
2014-Sep-17 07:24N 59°24' E 022°34'17110.2
2014-Sep-16 14:33N 58°37' E 017°14'9 9.0
2014-Sep-16 13:33N 58°36' E 016°57'9 9.0
2014-Sep-16 12:33N 58°38' E 016°40'8 8.5
2014-Sep-16 11:33N 58°39' E 016°24'6 6.3
2014-Sep-16 10:33N 58°36' E 016°13'0 0.3
2014-Sep-16 09:26N 58°36' E 016°12'0 0.0
2014-Sep-16 08:23N 58°36' E 016°12'0 0.0
2014-Sep-16 07:32N 58°36' E 016°12'0 0.0
2014-Sep-16 06:26N 58°36' E 016°12'0 0.0
2014-Sep-16 05:32N 58°36' E 016°12'0 0.0
2014-Sep-16 04:32N 58°36' E 016°12'0 0.0
2014-Sep-16 03:32N 58°36' E 016°12'0 0.0
2014-Sep-16 02:32N 58°36' E 016°12'0 0.0
2014-Sep-16 01:32N 58°36' E 016°12'0 0.0
2014-Sep-16 00:20N 58°36' E 016°12'0 0.0
2014-Sep-15 23:26N 58°36' E 016°12'0 0.0
2014-Sep-15 22:32N 58°36' E 016°12'0 0.0
2014-Sep-15 21:32N 58°36' E 016°12'0 0.0
2014-Sep-15 20:32N 58°36' E 016°12'0 0.0
2014-Sep-15 19:26N 58°36' E 016°12'0 0.0
2014-Sep-15 18:08N 58°36' E 016°12'0 0.1
2014-Sep-15 17:32N 58°36' E 016°12'0 0.0
2014-Sep-15 16:32N 58°36' E 016°12'0 0.0
2014-Sep-15 15:26N 58°36' E 016°12'0 0.0
2014-Sep-15 14:32N 58°36' E 016°12'0 0.0
2014-Sep-15 13:26N 58°36' E 016°12'0 0.0
2014-Sep-15 12:32N 58°36' E 016°12'0 0.0
2014-Sep-15 11:32N 58°36' E 016°12'0 0.0
2014-Sep-15 10:29N 58°36' E 016°12'0 0.0
2014-Sep-15 09:32N 58°36' E 016°12'0 0.0
2014-Sep-15 08:32N 58°36' E 016°12'0 0.0
2014-Sep-15 07:32N 58°36' E 016°12'0 0.0
2014-Sep-15 06:29N 58°36' E 016°12'0 0.0
2014-Sep-15 05:32N 58°36' E 016°12'0 0.0
2014-Sep-15 04:32N 58°36' E 016°12'0 0.0
2014-Sep-15 03:31N 58°36' E 016°12'0 0.0
2014-Sep-15 02:31N 58°36' E 016°12'0 0.0
2014-Sep-15 01:25N 58°36' E 016°12'0 0.0
2014-Sep-15 00:31N 58°36' E 016°12'0 0.0
2014-Sep-14 23:31N 58°36' E 016°12'0 0.0
2014-Sep-14 22:28N 58°36' E 016°12'0 0.0
2014-Sep-14 21:25N 58°36' E 016°12'0 0.0
2014-Sep-14 20:31N 58°36' E 016°12'0 0.0
2014-Sep-14 19:07N 58°36' E 016°12'0 0.0
2014-Sep-14 18:25N 58°36' E 016°12'0 0.0
2014-Sep-14 17:28N 58°36' E 016°12'0 0.0
2014-Sep-14 16:31N 58°36' E 016°12'0 0.0
2014-Sep-14 15:31N 58°36' E 016°12'0 0.0
2014-Sep-14 14:28N 58°36' E 016°12'0 0.0
2014-Sep-14 13:31N 58°36' E 016°12'0 0.0
2014-Sep-14 12:25N 58°36' E 016°12'0 0.0
2014-Sep-14 11:31N 58°36' E 016°12'0 0.0
2014-Sep-14 10:25N 58°36' E 016°12'0 0.0
2014-Sep-14 09:31N 58°36' E 016°12'0 0.0
2014-Sep-14 08:25N 58°36' E 016°12'0 0.0
2014-Sep-14 07:25N 58°36' E 016°12'0 0.0
2014-Sep-14 06:13N 58°36' E 016°12'0 0.0
2014-Sep-14 05:19N 58°36' E 016°12'0 0.0
2014-Sep-14 04:31N 58°36' E 016°12'0 0.0
2014-Sep-14 03:31N 58°36' E 016°12'0 0.0
2014-Sep-14 02:25N 58°36' E 016°12'0 0.0
2014-Sep-14 01:31N 58°36' E 016°12'0 0.0
2014-Sep-13 21:31N 58°36' E 016°12'0 0.0
2014-Sep-13 20:25N 58°36' E 016°12'0 0.0
2014-Sep-13 19:31N 58°36' E 016°12'0 0.0
2014-Sep-13 18:30N 58°36' E 016°12'0 0.0
2014-Sep-13 17:21N 58°36' E 016°12'0 0.0
2014-Sep-13 16:06N 58°36' E 016°12'0 0.0
2014-Sep-13 15:30N 58°36' E 016°12'0 0.0
2014-Sep-13 14:30N 58°36' E 016°12'0 0.0
2014-Sep-13 13:27N 58°36' E 016°12'0 0.0
2014-Sep-13 12:30N 58°36' E 016°12'0 0.0
2014-Sep-13 11:24N 58°36' E 016°12'0 0.0
2014-Sep-13 10:06N 58°36' E 016°12'0 0.0
2014-Sep-13 09:30N 58°36' E 016°12'0 0.0
2014-Sep-13 08:30N 58°36' E 016°12'0 0.0
2014-Sep-13 07:33N 58°36' E 016°12'3 3.2
2014-Sep-13 06:33N 58°38' E 016°17'8 8.0
2014-Sep-13 05:33N 58°39' E 016°32'8 8.4
2014-Sep-13 04:34N 58°37' E 016°48'8 7.8
2014-Sep-13 03:34N 58°37' E 017°03'8 7.6
2014-Sep-13 02:33N 58°37' E 017°18'180 6.6
2014-Sep-11 23:28N 59°32' E 022°51'8 7.9
2014-Sep-11 22:27N 59°35' E 023°05'7 8.1
2014-Sep-11 21:32N 59°37' E 023°19'7 7.6
2014-Sep-11 20:33N 59°39' E 023°33'8 7.6
2014-Sep-11 19:33N 59°42' E 023°48'8 7.7
2014-Sep-11 18:33N 59°44' E 024°02'9 8.0
2014-Sep-11 17:24N 59°46' E 024°20'7 7.7
2014-Sep-11 16:32N 59°48' E 024°33'10 7.8
2014-Sep-11 15:14N 59°50' E 024°53'23 7.9
2014-Sep-11 12:19N 59°54' E 025°38'21 7.8
2014-Sep-11 09:33N 59°59' E 026°19'8 7.8
2014-Sep-11 08:33N 60°01' E 026°35'8 7.8
2014-Sep-11 07:33N 60°00' E 026°50'9 7.4
2014-Sep-11 06:20N 60°01' E 027°08'3 0.1
2014-Sep-09 18:05N 59°58' E 027°05'5 7.2
2014-Sep-09 17:21N 59°59' E 026°54'6 7.4
2014-Sep-09 16:33N 59°59' E 026°43'7 7.2
2014-Sep-09 15:34N 59°58' E 026°29'9 7.3
2014-Sep-09 14:17N 59°55' E 026°11'8 8.7
2014-Sep-09 13:22N 59°53' E 025°55'  

Dump ship's entire track history